sensor_id;sensor_type;location;lat;lon;timestamp;P1;durP1;ratioP1;P2;durP2;ratioP2
36371;SDS011;22398;51.346;12.372;2023-04-10T00:01:13;48.20;;;25.95;;
36371;SDS011;22398;51.346;12.372;2023-04-10T00:06:17;58.13;;;28.83;;
36371;SDS011;22398;51.346;12.372;2023-04-10T00:11:21;49.87;;;27.03;;
36371;SDS011;22398;51.346;12.372;2023-04-10T00:16:24;55.45;;;27.58;;
36371;SDS011;22398;51.346;12.372;2023-04-10T00:21:29;54.00;;;27.17;;
36371;SDS011;22398;51.346;12.372;2023-04-10T00:26:33;58.95;;;26.67;;
36371;SDS011;22398;51.346;12.372;2023-04-10T00:31:37;53.55;;;28.23;;
36371;SDS011;22398;51.346;12.372;2023-04-10T00:36:41;60.50;;;27.73;;
36371;SDS011;22398;51.346;12.372;2023-04-10T00:41:46;53.63;;;28.35;;
36371;SDS011;22398;51.346;12.372;2023-04-10T00:46:50;53.22;;;26.88;;
36371;SDS011;22398;51.346;12.372;2023-04-10T00:51:55;62.00;;;27.48;;
36371;SDS011;22398;51.346;12.372;2023-04-10T00:56:59;49.88;;;27.05;;
36371;SDS011;22398;51.346;12.372;2023-04-10T01:02:03;57.77;;;27.53;;
36371;SDS011;22398;51.346;12.372;2023-04-10T01:07:09;44.03;;;23.33;;
36371;SDS011;22398;51.346;12.372;2023-04-10T01:12:22;50.17;;;24.85;;
36371;SDS011;22398;51.346;12.372;2023-04-10T01:17:39;53.70;;;26.33;;
36371;SDS011;22398;51.346;12.372;2023-04-10T01:23:03;53.42;;;27.83;;
36371;SDS011;22398;51.346;12.372;2023-04-10T01:39:02;52.03;;;24.00;;
36371;SDS011;22398;51.346;12.372;2023-04-10T01:44:07;50.97;;;25.80;;
36371;SDS011;22398;51.346;12.372;2023-04-10T01:54:17;51.90;;;25.23;;
36371;SDS011;22398;51.346;12.372;2023-04-10T01:59:21;53.00;;;27.23;;
36371;SDS011;22398;51.346;12.372;2023-04-10T02:04:26;47.50;;;24.13;;
36371;SDS011;22398;51.346;12.372;2023-04-10T02:09:32;47.08;;;25.05;;
36371;SDS011;22398;51.346;12.372;2023-04-10T02:14:43;44.78;;;22.88;;
36371;SDS011;22398;51.346;12.372;2023-04-10T02:19:50;45.22;;;22.10;;
36371;SDS011;22398;51.346;12.372;2023-04-10T02:24:55;48.13;;;24.38;;
36371;SDS011;22398;51.346;12.372;2023-04-10T02:30:00;48.28;;;25.38;;
36371;SDS011;22398;51.346;12.372;2023-04-10T02:35:07;53.72;;;24.95;;
36371;SDS011;22398;51.346;12.372;2023-04-10T02:40:11;53.40;;;24.25;;
36371;SDS011;22398;51.346;12.372;2023-04-10T02:45:28;48.80;;;22.08;;
36371;SDS011;22398;51.346;12.372;2023-04-10T02:50:35;53.77;;;23.80;;
36371;SDS011;22398;51.346;12.372;2023-04-10T02:55:38;47.72;;;22.45;;
36371;SDS011;22398;51.346;12.372;2023-04-10T03:00:46;53.67;;;24.95;;
36371;SDS011;22398;51.346;12.372;2023-04-10T03:05:57;47.53;;;23.77;;
36371;SDS011;22398;51.346;12.372;2023-04-10T03:11:06;43.00;;;19.90;;
36371;SDS011;22398;51.346;12.372;2023-04-10T03:16:10;41.70;;;19.52;;
36371;SDS011;22398;51.346;12.372;2023-04-10T03:21:15;36.70;;;17.08;;
36371;SDS011;22398;51.346;12.372;2023-04-10T03:26:19;33.95;;;16.80;;
36371;SDS011;22398;51.346;12.372;2023-04-10T03:31:25;41.00;;;18.23;;
36371;SDS011;22398;51.346;12.372;2023-04-10T03:36:33;32.83;;;16.45;;
36371;SDS011;22398;51.346;12.372;2023-04-10T03:41:36;31.65;;;15.98;;
36371;SDS011;22398;51.346;12.372;2023-04-10T03:46:40;33.40;;;17.45;;
36371;SDS011;22398;51.346;12.372;2023-04-10T03:51:45;30.67;;;15.68;;
36371;SDS011;22398;51.346;12.372;2023-04-10T03:56:48;38.30;;;16.85;;
36371;SDS011;22398;51.346;12.372;2023-04-10T04:01:54;31.45;;;15.27;;
36371;SDS011;22398;51.346;12.372;2023-04-10T04:07:00;37.45;;;16.88;;
36371;SDS011;22398;51.346;12.372;2023-04-10T04:12:20;28.58;;;15.00;;
36371;SDS011;22398;51.346;12.372;2023-04-10T04:17:39;33.45;;;15.38;;
36371;SDS011;22398;51.346;12.372;2023-04-10T04:22:44;33.35;;;15.25;;
36371;SDS011;22398;51.346;12.372;2023-04-10T04:28:11;33.33;;;15.75;;
36371;SDS011;22398;51.346;12.372;2023-04-10T04:33:37;31.88;;;15.15;;
36371;SDS011;22398;51.346;12.372;2023-04-10T04:39:00;38.03;;;17.63;;
36371;SDS011;22398;51.346;12.372;2023-04-10T04:44:21;29.05;;;15.45;;
36371;SDS011;22398;51.346;12.372;2023-04-10T04:49:42;30.55;;;14.52;;
36371;SDS011;22398;51.346;12.372;2023-04-10T04:55:09;49.00;;;20.55;;
36371;SDS011;22398;51.346;12.372;2023-04-10T05:00:28;32.83;;;16.95;;
36371;SDS011;22398;51.346;12.372;2023-04-10T05:05:55;29.35;;;15.63;;
36371;SDS011;22398;51.346;12.372;2023-04-10T05:11:10;32.97;;;14.82;;
36371;SDS011;22398;51.346;12.372;2023-04-10T05:16:47;29.48;;;15.40;;
36371;SDS011;22398;51.346;12.372;2023-04-10T05:21:55;34.72;;;15.65;;
36371;SDS011;22398;51.346;12.372;2023-04-10T05:27:20;33.05;;;15.48;;
36371;SDS011;22398;51.346;12.372;2023-04-10T05:32:52;30.60;;;15.18;;
36371;SDS011;22398;51.346;12.372;2023-04-10T05:37:57;36.10;;;14.98;;
36371;SDS011;22398;51.346;12.372;2023-04-10T05:43:11;34.97;;;16.40;;
36371;SDS011;22398;51.346;12.372;2023-04-10T05:48:32;30.60;;;14.85;;
36371;SDS011;22398;51.346;12.372;2023-04-10T05:53:53;28.63;;;15.63;;
36371;SDS011;22398;51.346;12.372;2023-04-10T05:59:22;26.92;;;14.70;;
36371;SDS011;22398;51.346;12.372;2023-04-10T06:04:54;31.95;;;16.05;;
36371;SDS011;22398;51.346;12.372;2023-04-10T06:09:58;29.88;;;15.43;;
36371;SDS011;22398;51.346;12.372;2023-04-10T06:15:08;28.83;;;15.57;;
36371;SDS011;22398;51.346;12.372;2023-04-10T06:20:13;29.02;;;15.07;;
36371;SDS011;22398;51.346;12.372;2023-04-10T06:25:16;29.10;;;15.45;;
36371;SDS011;22398;51.346;12.372;2023-04-10T06:30:21;28.23;;;14.77;;
36371;SDS011;22398;51.346;12.372;2023-04-10T06:35:25;29.92;;;14.68;;
36371;SDS011;22398;51.346;12.372;2023-04-10T06:40:29;26.70;;;14.38;;
36371;SDS011;22398;51.346;12.372;2023-04-10T06:50:39;25.35;;;13.90;;
36371;SDS011;22398;51.346;12.372;2023-04-10T06:55:43;27.90;;;14.02;;
36371;SDS011;22398;51.346;12.372;2023-04-10T07:00:48;28.63;;;14.85;;
36371;SDS011;22398;51.346;12.372;2023-04-10T07:05:52;30.10;;;14.93;;
36371;SDS011;22398;51.346;12.372;2023-04-10T07:10:56;31.45;;;15.02;;
36371;SDS011;22398;51.346;12.372;2023-04-10T07:16:00;30.55;;;14.88;;
36371;SDS011;22398;51.346;12.372;2023-04-10T07:21:08;34.90;;;16.23;;
36371;SDS011;22398;51.346;12.372;2023-04-10T07:26:13;28.95;;;15.57;;
36371;SDS011;22398;51.346;12.372;2023-04-10T07:31:18;34.53;;;17.85;;
36371;SDS011;22398;51.346;12.372;2023-04-10T07:36:22;29.23;;;16.27;;
36371;SDS011;22398;51.346;12.372;2023-04-10T07:41:25;29.77;;;14.38;;
36371;SDS011;22398;51.346;12.372;2023-04-10T07:46:30;33.20;;;16.75;;
36371;SDS011;22398;51.346;12.372;2023-04-10T07:51:34;29.10;;;16.27;;
36371;SDS011;22398;51.346;12.372;2023-04-10T07:56:38;33.83;;;18.25;;
36371;SDS011;22398;51.346;12.372;2023-04-10T08:01:43;31.83;;;17.80;;
36371;SDS011;22398;51.346;12.372;2023-04-10T08:06:47;25.90;;;15.45;;
36371;SDS011;22398;51.346;12.372;2023-04-10T08:11:51;25.10;;;14.27;;
36371;SDS011;22398;51.346;12.372;2023-04-10T08:16:56;25.67;;;14.95;;
36371;SDS011;22398;51.346;12.372;2023-04-10T08:22:00;34.85;;;18.95;;
36371;SDS011;22398;51.346;12.372;2023-04-10T08:27:04;25.15;;;14.13;;
36371;SDS011;22398;51.346;12.372;2023-04-10T08:32:09;20.45;;;12.40;;
36371;SDS011;22398;51.346;12.372;2023-04-10T08:37:13;21.48;;;13.18;;
36371;SDS011;22398;51.346;12.372;2023-04-10T08:42:16;23.38;;;11.80;;
36371;SDS011;22398;51.346;12.372;2023-04-10T08:47:21;20.15;;;11.35;;
36371;SDS011;22398;51.346;12.372;2023-04-10T08:52:30;21.10;;;12.35;;
36371;SDS011;22398;51.346;12.372;2023-04-10T08:57:37;19.23;;;11.70;;
36371;SDS011;22398;51.346;12.372;2023-04-10T09:02:50;21.23;;;12.93;;
36371;SDS011;22398;51.346;12.372;2023-04-10T09:07:59;23.70;;;12.45;;
36371;SDS011;22398;51.346;12.372;2023-04-10T09:13:03;19.25;;;10.88;;
36371;SDS011;22398;51.346;12.372;2023-04-10T09:18:08;22.27;;;12.95;;
36371;SDS011;22398;51.346;12.372;2023-04-10T09:23:18;17.38;;;10.63;;
36371;SDS011;22398;51.346;12.372;2023-04-10T09:28:22;27.38;;;14.98;;
36371;SDS011;22398;51.346;12.372;2023-04-10T09:33:28;17.10;;;9.65;;
36371;SDS011;22398;51.346;12.372;2023-04-10T09:38:31;17.30;;;10.18;;
36371;SDS011;22398;51.346;12.372;2023-04-10T09:43:36;15.40;;;8.57;;
36371;SDS011;22398;51.346;12.372;2023-04-10T09:48:42;14.52;;;8.50;;
36371;SDS011;22398;51.346;12.372;2023-04-10T09:53:57;13.60;;;7.78;;
36371;SDS011;22398;51.346;12.372;2023-04-10T09:59:01;14.00;;;8.43;;
36371;SDS011;22398;51.346;12.372;2023-04-10T10:04:08;15.70;;;8.38;;
36371;SDS011;22398;51.346;12.372;2023-04-10T10:09:13;14.40;;;8.50;;
36371;SDS011;22398;51.346;12.372;2023-04-10T10:14:17;15.27;;;8.80;;
36371;SDS011;22398;51.346;12.372;2023-04-10T10:19:26;15.65;;;8.75;;
36371;SDS011;22398;51.346;12.372;2023-04-10T10:24:33;13.38;;;7.68;;
36371;SDS011;22398;51.346;12.372;2023-04-10T10:29:38;16.38;;;8.05;;
36371;SDS011;22398;51.346;12.372;2023-04-10T10:34:44;11.05;;;7.28;;
36371;SDS011;22398;51.346;12.372;2023-04-10T10:39:52;14.75;;;8.25;;
36371;SDS011;22398;51.346;12.372;2023-04-10T10:45:01;13.52;;;7.75;;
36371;SDS011;22398;51.346;12.372;2023-04-10T10:50:13;15.73;;;8.43;;
36371;SDS011;22398;51.346;12.372;2023-04-10T10:55:32;15.63;;;7.80;;
36371;SDS011;22398;51.346;12.372;2023-04-10T11:06:13;12.55;;;7.78;;
36371;SDS011;22398;51.346;12.372;2023-04-10T11:11:19;11.95;;;7.47;;
36371;SDS011;22398;51.346;12.372;2023-04-10T11:22:01;11.15;;;7.22;;
36371;SDS011;22398;51.346;12.372;2023-04-10T11:27:09;12.50;;;7.25;;
36371;SDS011;22398;51.346;12.372;2023-04-10T11:32:39;11.98;;;7.03;;
36371;SDS011;22398;51.346;12.372;2023-04-10T11:37:44;11.10;;;7.40;;
36371;SDS011;22398;51.346;12.372;2023-04-10T11:42:47;12.17;;;7.50;;
36371;SDS011;22398;51.346;12.372;2023-04-10T11:47:51;13.70;;;7.07;;
36371;SDS011;22398;51.346;12.372;2023-04-10T11:52:56;11.73;;;7.28;;
36371;SDS011;22398;51.346;12.372;2023-04-10T11:58:00;11.25;;;7.18;;
36371;SDS011;22398;51.346;12.372;2023-04-10T12:03:03;12.73;;;7.43;;
36371;SDS011;22398;51.346;12.372;2023-04-10T12:08:08;14.07;;;7.38;;
36371;SDS011;22398;51.346;12.372;2023-04-10T12:13:23;10.48;;;7.85;;
36371;SDS011;22398;51.346;12.372;2023-04-10T12:18:27;11.35;;;6.97;;
36371;SDS011;22398;51.346;12.372;2023-04-10T12:23:33;13.30;;;7.40;;
36371;SDS011;22398;51.346;12.372;2023-04-10T12:28:40;11.35;;;6.70;;
36371;SDS011;22398;51.346;12.372;2023-04-10T12:38:50;10.25;;;6.45;;
36371;SDS011;22398;51.346;12.372;2023-04-10T12:44:05;10.32;;;5.75;;
36371;SDS011;22398;51.346;12.372;2023-04-10T12:49:11;10.75;;;6.00;;
36371;SDS011;22398;51.346;12.372;2023-04-10T12:54:29;15.10;;;7.30;;
36371;SDS011;22398;51.346;12.372;2023-04-10T12:59:33;12.10;;;6.75;;
36371;SDS011;22398;51.346;12.372;2023-04-10T13:04:38;8.77;;;6.30;;
36371;SDS011;22398;51.346;12.372;2023-04-10T13:09:43;9.40;;;5.97;;
36371;SDS011;22398;51.346;12.372;2023-04-10T13:14:47;9.98;;;6.22;;
36371;SDS011;22398;51.346;12.372;2023-04-10T13:19:50;11.80;;;5.63;;
36371;SDS011;22398;51.346;12.372;2023-04-10T13:24:56;10.05;;;6.22;;
36371;SDS011;22398;51.346;12.372;2023-04-10T13:30:00;7.82;;;5.47;;
36371;SDS011;22398;51.346;12.372;2023-04-10T13:35:04;9.77;;;5.60;;
36371;SDS011;22398;51.346;12.372;2023-04-10T13:40:10;9.23;;;5.73;;
36371;SDS011;22398;51.346;12.372;2023-04-10T13:45:13;12.25;;;5.30;;
36371;SDS011;22398;51.346;12.372;2023-04-10T13:50:17;8.38;;;5.20;;
36371;SDS011;22398;51.346;12.372;2023-04-10T13:55:21;10.27;;;5.10;;
36371;SDS011;22398;51.346;12.372;2023-04-10T14:00:24;8.20;;;4.68;;
36371;SDS011;22398;51.346;12.372;2023-04-10T14:05:28;7.45;;;3.92;;
36371;SDS011;22398;51.346;12.372;2023-04-10T14:10:32;5.20;;;3.47;;
36371;SDS011;22398;51.346;12.372;2023-04-10T14:15:36;6.00;;;3.88;;
36371;SDS011;22398;51.346;12.372;2023-04-10T14:20:39;7.82;;;3.67;;
36371;SDS011;22398;51.346;12.372;2023-04-10T14:25:44;5.85;;;3.65;;
36371;SDS011;22398;51.346;12.372;2023-04-10T14:35:51;6.22;;;3.78;;
36371;SDS011;22398;51.346;12.372;2023-04-10T14:40:57;5.28;;;3.92;;
36371;SDS011;22398;51.346;12.372;2023-04-10T14:46:00;5.00;;;3.67;;
36371;SDS011;22398;51.346;12.372;2023-04-10T14:51:06;6.68;;;3.92;;
36371;SDS011;22398;51.346;12.372;2023-04-10T14:56:14;6.25;;;4.25;;
36371;SDS011;22398;51.346;12.372;2023-04-10T15:01:18;5.95;;;4.18;;
36371;SDS011;22398;51.346;12.372;2023-04-10T15:06:22;6.60;;;3.90;;
36371;SDS011;22398;51.346;12.372;2023-04-10T15:11:27;6.43;;;4.35;;
36371;SDS011;22398;51.346;12.372;2023-04-10T15:16:30;6.95;;;4.35;;
36371;SDS011;22398;51.346;12.372;2023-04-10T15:21:34;6.35;;;3.78;;
36371;SDS011;22398;51.346;12.372;2023-04-10T15:26:41;6.93;;;3.92;;
36371;SDS011;22398;51.346;12.372;2023-04-10T15:31:46;5.75;;;4.00;;
36371;SDS011;22398;51.346;12.372;2023-04-10T15:36:51;7.80;;;4.07;;
36371;SDS011;22398;51.346;12.372;2023-04-10T15:41:57;5.00;;;3.20;;
36371;SDS011;22398;51.346;12.372;2023-04-10T15:47:01;4.85;;;3.45;;
36371;SDS011;22398;51.346;12.372;2023-04-10T15:52:05;4.70;;;3.20;;
36371;SDS011;22398;51.346;12.372;2023-04-10T15:57:10;6.05;;;3.70;;
36371;SDS011;22398;51.346;12.372;2023-04-10T16:07:17;6.18;;;4.30;;
36371;SDS011;22398;51.346;12.372;2023-04-10T16:12:23;6.78;;;4.10;;
36371;SDS011;22398;51.346;12.372;2023-04-10T16:17:26;5.97;;;3.70;;
36371;SDS011;22398;51.346;12.372;2023-04-10T16:22:30;6.72;;;4.03;;
36371;SDS011;22398;51.346;12.372;2023-04-10T16:27:35;11.10;;;4.40;;
36371;SDS011;22398;51.346;12.372;2023-04-10T16:37:42;6.63;;;3.80;;
36371;SDS011;22398;51.346;12.372;2023-04-10T16:42:47;8.80;;;4.32;;
36371;SDS011;22398;51.346;12.372;2023-04-10T16:47:51;6.78;;;4.18;;
36371;SDS011;22398;51.346;12.372;2023-04-10T16:52:55;6.60;;;4.13;;
36371;SDS011;22398;51.346;12.372;2023-04-10T16:58:01;5.60;;;3.67;;
36371;SDS011;22398;51.346;12.372;2023-04-10T17:08:08;6.07;;;3.85;;
36371;SDS011;22398;51.346;12.372;2023-04-10T17:13:13;6.50;;;4.03;;
36371;SDS011;22398;51.346;12.372;2023-04-10T17:18:20;8.75;;;3.85;;
36371;SDS011;22398;51.346;12.372;2023-04-10T17:23:24;7.28;;;4.63;;
36371;SDS011;22398;51.346;12.372;2023-04-10T17:28:29;5.88;;;3.85;;
36371;SDS011;22398;51.346;12.372;2023-04-10T17:33:33;7.20;;;4.28;;
36371;SDS011;22398;51.346;12.372;2023-04-10T17:38:37;6.78;;;3.85;;
36371;SDS011;22398;51.346;12.372;2023-04-10T17:43:42;6.72;;;3.83;;
36371;SDS011;22398;51.346;12.372;2023-04-10T17:48:46;7.90;;;4.68;;
36371;SDS011;22398;51.346;12.372;2023-04-10T17:53:50;8.95;;;4.63;;
36371;SDS011;22398;51.346;12.372;2023-04-10T17:58:56;7.20;;;4.10;;
36371;SDS011;22398;51.346;12.372;2023-04-10T18:04:01;8.50;;;4.55;;
36371;SDS011;22398;51.346;12.372;2023-04-10T18:09:05;9.87;;;4.73;;
36371;SDS011;22398;51.346;12.372;2023-04-10T18:14:10;7.07;;;4.47;;
36371;SDS011;22398;51.346;12.372;2023-04-10T18:19:13;7.90;;;4.80;;
36371;SDS011;22398;51.346;12.372;2023-04-10T18:24:16;8.10;;;4.80;;
36371;SDS011;22398;51.346;12.372;2023-04-10T18:29:21;8.30;;;4.85;;
36371;SDS011;22398;51.346;12.372;2023-04-10T18:34:26;8.93;;;5.13;;
36371;SDS011;22398;51.346;12.372;2023-04-10T18:39:29;10.13;;;5.13;;
36371;SDS011;22398;51.346;12.372;2023-04-10T18:44:34;8.00;;;4.40;;
36371;SDS011;22398;51.346;12.372;2023-04-10T18:49:38;8.73;;;4.55;;
36371;SDS011;22398;51.346;12.372;2023-04-10T18:54:42;10.02;;;4.60;;
36371;SDS011;22398;51.346;12.372;2023-04-10T18:59:47;8.65;;;5.13;;
36371;SDS011;22398;51.346;12.372;2023-04-10T19:04:51;8.27;;;5.85;;
36371;SDS011;22398;51.346;12.372;2023-04-10T19:09:55;10.02;;;6.03;;
36371;SDS011;22398;51.346;12.372;2023-04-10T19:15:00;7.82;;;5.05;;
36371;SDS011;22398;51.346;12.372;2023-04-10T19:20:06;7.90;;;4.40;;
36371;SDS011;22398;51.346;12.372;2023-04-10T19:25:09;8.88;;;5.22;;
36371;SDS011;22398;51.346;12.372;2023-04-10T19:30:14;9.55;;;5.20;;
36371;SDS011;22398;51.346;12.372;2023-04-10T19:35:17;8.23;;;5.00;;
36371;SDS011;22398;51.346;12.372;2023-04-10T19:40:22;14.43;;;5.18;;
36371;SDS011;22398;51.346;12.372;2023-04-10T19:45:27;9.18;;;5.20;;
36371;SDS011;22398;51.346;12.372;2023-04-10T19:50:32;10.65;;;5.15;;
36371;SDS011;22398;51.346;12.372;2023-04-10T19:55:36;8.80;;;4.90;;
36371;SDS011;22398;51.346;12.372;2023-04-10T20:00:42;9.50;;;5.25;;
36371;SDS011;22398;51.346;12.372;2023-04-10T20:05:46;9.88;;;5.13;;
36371;SDS011;22398;51.346;12.372;2023-04-10T20:10:50;10.90;;;5.68;;
36371;SDS011;22398;51.346;12.372;2023-04-10T20:15:57;11.55;;;4.93;;
36371;SDS011;22398;51.346;12.372;2023-04-10T20:21:01;9.85;;;4.97;;
36371;SDS011;22398;51.346;12.372;2023-04-10T20:26:05;10.90;;;5.15;;
36371;SDS011;22398;51.346;12.372;2023-04-10T20:31:10;9.13;;;5.20;;
36371;SDS011;22398;51.346;12.372;2023-04-10T20:36:14;10.02;;;4.82;;
36371;SDS011;22398;51.346;12.372;2023-04-10T20:41:18;11.45;;;5.03;;
36371;SDS011;22398;51.346;12.372;2023-04-10T20:46:23;6.97;;;4.97;;
36371;SDS011;22398;51.346;12.372;2023-04-10T20:51:28;8.88;;;5.55;;
36371;SDS011;22398;51.346;12.372;2023-04-10T20:56:32;9.57;;;5.03;;
36371;SDS011;22398;51.346;12.372;2023-04-10T21:01:44;11.40;;;5.47;;
36371;SDS011;22398;51.346;12.372;2023-04-10T21:06:48;10.13;;;5.10;;
36371;SDS011;22398;51.346;12.372;2023-04-10T21:11:52;9.82;;;5.47;;
36371;SDS011;22398;51.346;12.372;2023-04-10T21:16:57;8.02;;;4.68;;
36371;SDS011;22398;51.346;12.372;2023-04-10T21:22:01;8.40;;;4.53;;
36371;SDS011;22398;51.346;12.372;2023-04-10T21:27:04;8.68;;;5.45;;
36371;SDS011;22398;51.346;12.372;2023-04-10T21:32:10;9.23;;;5.68;;
36371;SDS011;22398;51.346;12.372;2023-04-10T21:37:14;11.20;;;5.43;;
36371;SDS011;22398;51.346;12.372;2023-04-10T21:42:17;9.82;;;5.50;;
36371;SDS011;22398;51.346;12.372;2023-04-10T21:47:22;8.65;;;4.88;;
36371;SDS011;22398;51.346;12.372;2023-04-10T21:52:26;9.10;;;5.22;;
36371;SDS011;22398;51.346;12.372;2023-04-10T21:57:30;7.32;;;4.72;;
36371;SDS011;22398;51.346;12.372;2023-04-10T22:02:35;8.55;;;4.82;;
36371;SDS011;22398;51.346;12.372;2023-04-10T22:07:39;8.30;;;5.10;;
36371;SDS011;22398;51.346;12.372;2023-04-10T22:12:42;9.50;;;5.07;;
36371;SDS011;22398;51.346;12.372;2023-04-10T22:17:50;9.07;;;5.43;;
36371;SDS011;22398;51.346;12.372;2023-04-10T22:22:54;7.95;;;4.60;;
36371;SDS011;22398;51.346;12.372;2023-04-10T22:27:58;11.27;;;5.40;;
36371;SDS011;22398;51.346;12.372;2023-04-10T22:33:03;8.75;;;4.70;;
36371;SDS011;22398;51.346;12.372;2023-04-10T22:38:06;9.80;;;5.20;;
36371;SDS011;22398;51.346;12.372;2023-04-10T22:43:10;8.15;;;4.20;;
36371;SDS011;22398;51.346;12.372;2023-04-10T22:48:15;11.85;;;5.40;;
36371;SDS011;22398;51.346;12.372;2023-04-10T22:53:19;10.80;;;5.47;;
36371;SDS011;22398;51.346;12.372;2023-04-10T22:58:22;10.10;;;5.47;;
36371;SDS011;22398;51.346;12.372;2023-04-10T23:03:27;9.50;;;4.90;;
36371;SDS011;22398;51.346;12.372;2023-04-10T23:08:31;9.27;;;4.97;;
36371;SDS011;22398;51.346;12.372;2023-04-10T23:13:35;8.63;;;4.97;;
36371;SDS011;22398;51.346;12.372;2023-04-10T23:18:40;7.55;;;4.40;;
36371;SDS011;22398;51.346;12.372;2023-04-10T23:23:43;8.95;;;4.75;;
36371;SDS011;22398;51.346;12.372;2023-04-10T23:28:47;9.02;;;4.65;;
36371;SDS011;22398;51.346;12.372;2023-04-10T23:33:52;7.57;;;4.38;;
36371;SDS011;22398;51.346;12.372;2023-04-10T23:38:56;7.80;;;4.40;;
36371;SDS011;22398;51.346;12.372;2023-04-10T23:43:59;8.10;;;4.72;;
36371;SDS011;22398;51.346;12.372;2023-04-10T23:49:04;8.07;;;5.18;;
36371;SDS011;22398;51.346;12.372;2023-04-10T23:54:08;8.60;;;4.90;;
36371;SDS011;22398;51.346;12.372;2023-04-10T23:59:11;9.57;;;4.38;;
